createdAt,value
2019-01-14T00:00:02.486Z,1005.25
2019-01-14T00:01:02.638Z,1005.24
2019-01-14T00:02:02.441Z,1005.26
2019-01-14T00:03:02.632Z,1005.19
2019-01-14T00:04:02.321Z,1005.24
2019-01-14T00:05:02.327Z,1005.2
2019-01-14T00:06:02.363Z,1005.21
2019-01-14T00:07:02.474Z,1005.27
2019-01-14T00:08:02.582Z,1005.27
2019-01-14T00:09:02.329Z,1005.3
2019-01-14T00:10:02.460Z,1005.32
2019-01-14T00:11:02.400Z,1005.29
2019-01-14T00:12:02.373Z,1005.29
2019-01-14T00:13:02.318Z,1005.33
2019-01-14T00:14:02.507Z,1005.31
2019-01-14T00:15:02.818Z,1005.34
2019-01-14T00:16:02.651Z,1005.38
2019-01-14T00:17:02.395Z,1005.42
2019-01-14T00:18:02.406Z,1005.48
2019-01-14T00:19:02.389Z,1005.49
2019-01-14T00:20:02.459Z,1005.52
2019-01-14T00:21:02.300Z,1005.52
2019-01-14T00:22:02.407Z,1005.51
2019-01-14T00:23:02.300Z,1005.51
2019-01-14T00:24:02.683Z,1005.52
2019-01-14T00:25:02.432Z,1005.54
2019-01-14T00:26:02.358Z,1005.6
2019-01-14T00:27:02.317Z,1005.56
2019-01-14T00:28:02.327Z,1005.61
2019-01-14T00:29:02.284Z,1005.57
2019-01-14T00:30:02.472Z,1005.58
2019-01-14T00:31:02.270Z,1005.55
2019-01-14T00:32:02.533Z,1005.58
2019-01-14T00:33:02.468Z,1005.58
2019-01-14T00:34:02.338Z,1005.64
2019-01-14T00:35:02.269Z,1005.59
2019-01-14T00:36:02.368Z,1005.64
2019-01-14T00:37:02.425Z,1005.68
2019-01-14T00:38:02.300Z,1005.71
2019-01-14T00:39:02.453Z,1005.71
2019-01-14T00:40:02.549Z,1005.76
2019-01-14T00:41:02.309Z,1005.76
2019-01-14T00:42:02.283Z,1005.77
2019-01-14T00:43:02.322Z,1005.79
2019-01-14T00:44:02.279Z,1005.8
2019-01-14T00:45:02.261Z,1005.79
2019-01-14T00:46:02.545Z,1005.84
2019-01-14T00:47:02.551Z,1005.85
2019-01-14T00:48:02.549Z,1005.88
2019-01-14T00:49:02.396Z,1005.9
2019-01-14T00:50:02.579Z,1005.92
2019-01-14T00:51:02.486Z,1005.93
2019-01-14T00:52:02.297Z,1005.93
2019-01-14T00:53:02.703Z,1005.96
2019-01-14T00:54:02.357Z,1005.98
2019-01-14T00:55:02.253Z,1005.91
2019-01-14T00:56:02.593Z,1005.96
2019-01-14T00:57:02.581Z,1005.97
2019-01-14T00:58:02.839Z,1006.02
2019-01-14T00:59:02.235Z,1005.99
2019-01-14T01:00:02.347Z,1006.02
2019-01-14T01:01:02.205Z,1006.07
2019-01-14T01:02:02.486Z,1006.1
2019-01-14T01:03:02.275Z,1006.1
2019-01-14T01:04:03.078Z,1006.12
2019-01-14T01:05:02.350Z,1006.05
2019-01-14T01:06:02.234Z,1006.03
2019-01-14T01:07:02.308Z,1006.01
2019-01-14T01:08:02.380Z,1006.01
2019-01-14T01:09:02.636Z,1006.01
2019-01-14T01:10:02.325Z,1006.02
2019-01-14T01:11:02.214Z,1005.93
2019-01-14T01:12:02.214Z,1005.94
2019-01-14T01:13:04.002Z,1005.91
2019-01-14T01:14:02.360Z,1005.94
2019-01-14T01:15:04.079Z,1005.96
2019-01-14T01:16:02.192Z,1005.99
2019-01-14T01:17:03.384Z,1005.95
2019-01-14T01:18:02.449Z,1005.99
2019-01-14T01:19:02.586Z,1005.95
2019-01-14T01:20:03.080Z,1005.98
2019-01-14T01:21:02.368Z,1006
2019-01-14T01:22:02.245Z,1006.06
2019-01-14T01:23:02.221Z,1006.1
2019-01-14T01:24:03.124Z,1006.04
2019-01-14T01:25:02.382Z,1006.07
2019-01-14T01:26:02.211Z,1006.12
2019-01-14T01:27:02.628Z,1006.1
2019-01-14T01:28:02.430Z,1006.13
2019-01-14T01:29:02.643Z,1006.12
2019-01-14T01:30:02.257Z,1006.12
2019-01-14T01:31:03.991Z,1006.08
2019-01-14T01:32:02.492Z,1006.09
2019-01-14T01:33:03.047Z,1006.13
2019-01-14T01:34:04.011Z,1006.08
2019-01-14T01:35:02.312Z,1006.15
2019-01-14T01:36:03.974Z,1006.17
2019-01-14T01:37:02.402Z,1006.14
2019-01-14T01:38:02.235Z,1006.16
2019-01-14T01:39:02.461Z,1006.19
2019-01-14T01:40:03.013Z,1006.21
2019-01-14T01:41:02.401Z,1006.24
2019-01-14T01:42:02.291Z,1006.26
2019-01-14T01:43:02.216Z,1006.25
2019-01-14T01:44:02.286Z,1006.29
2019-01-14T01:45:02.279Z,1006.25
2019-01-14T01:46:02.348Z,1006.3
2019-01-14T01:47:02.449Z,1006.28
2019-01-14T01:48:02.376Z,1006.29
2019-01-14T01:49:02.267Z,1006.34
2019-01-14T01:50:02.994Z,1006.37
2019-01-14T01:51:02.167Z,1006.36
2019-01-14T01:52:02.312Z,1006.42
2019-01-14T01:53:02.170Z,1006.4
2019-01-14T01:54:02.503Z,1006.41
2019-01-14T01:55:02.524Z,1006.38
2019-01-14T01:56:02.388Z,1006.42
2019-01-14T01:57:02.395Z,1006.43
2019-01-14T01:58:02.523Z,1006.46
2019-01-14T01:59:02.202Z,1006.46
2019-01-14T02:00:02.460Z,1006.49
2019-01-14T02:01:02.330Z,1006.44
2019-01-14T02:02:02.456Z,1006.41
2019-01-14T02:03:02.391Z,1006.39
2019-01-14T02:04:02.198Z,1006.45
2019-01-14T02:05:02.265Z,1006.47
2019-01-14T02:06:02.170Z,1006.49
2019-01-14T02:07:02.546Z,1006.56
2019-01-14T02:08:02.265Z,1006.49
2019-01-14T02:09:02.229Z,1006.53
2019-01-14T02:10:02.388Z,1006.52
2019-01-14T02:11:02.110Z,1006.51
2019-01-14T02:12:02.883Z,1006.53
2019-01-14T02:13:02.092Z,1006.56
2019-01-14T02:14:02.243Z,1006.51
2019-01-14T02:15:02.085Z,1006.52
2019-01-14T02:16:02.257Z,1006.51
2019-01-14T02:17:02.131Z,1006.49
2019-01-14T02:18:02.189Z,1006.52
2019-01-14T02:19:02.549Z,1006.53
2019-01-14T02:20:02.155Z,1006.54
2019-01-14T02:21:02.119Z,1006.65
2019-01-14T02:22:02.119Z,1006.64
2019-01-14T02:23:02.175Z,1006.66
2019-01-14T02:24:02.111Z,1006.7
2019-01-14T02:25:02.219Z,1006.7
2019-01-14T02:26:02.102Z,1006.72
2019-01-14T02:27:02.415Z,1006.72
2019-01-14T02:28:02.619Z,1006.75
2019-01-14T02:29:02.187Z,1006.75
2019-01-14T02:30:02.749Z,1006.73
2019-01-14T02:31:02.128Z,1006.73
2019-01-14T02:32:02.451Z,1006.72
2019-01-14T02:33:02.447Z,1006.7
2019-01-14T02:34:02.214Z,1006.76
2019-01-14T02:35:02.106Z,1006.81
2019-01-14T02:36:02.574Z,1006.79
2019-01-14T02:37:02.141Z,1006.86
2019-01-14T02:38:02.282Z,1006.88
2019-01-14T02:39:02.421Z,1006.86
2019-01-14T02:40:02.141Z,1006.89
2019-01-14T02:41:02.410Z,1006.83
2019-01-14T02:42:02.086Z,1006.86
2019-01-14T02:43:02.163Z,1006.84
2019-01-14T02:44:02.150Z,1006.92
2019-01-14T02:45:02.214Z,1006.94
2019-01-14T02:46:02.636Z,1006.9
2019-01-14T02:47:02.093Z,1006.93
2019-01-14T02:48:02.119Z,1006.96
2019-01-14T02:49:02.157Z,1006.98
2019-01-14T02:50:02.268Z,1007
2019-01-14T02:51:02.070Z,1006.99
2019-01-14T02:52:02.087Z,1006.98
2019-01-14T02:53:02.135Z,1006.99
2019-01-14T02:54:02.295Z,1007.03
2019-01-14T02:55:02.416Z,1007.05
2019-01-14T02:56:02.422Z,1007.07
2019-01-14T02:57:02.318Z,1007.11
2019-01-14T02:58:02.157Z,1007.13
2019-01-14T02:59:02.442Z,1007.19
2019-01-14T03:00:02.586Z,1007.16
2019-01-14T03:01:02.131Z,1007.17
2019-01-14T03:02:02.194Z,1007.19
2019-01-14T03:03:02.123Z,1007.22
2019-01-14T03:04:02.238Z,1007.22
2019-01-14T03:05:02.295Z,1007.23
2019-01-14T03:06:02.435Z,1007.21
2019-01-14T03:07:02.803Z,1007.23
2019-01-14T03:08:02.960Z,1007.21
2019-01-14T03:09:02.141Z,1007.21
2019-01-14T03:10:02.323Z,1007.2
2019-01-14T03:11:02.174Z,1007.19
2019-01-14T03:12:02.060Z,1007.24
2019-01-14T03:13:02.427Z,1007.24
2019-01-14T03:14:02.108Z,1007.25
2019-01-14T03:15:02.352Z,1007.22
2019-01-14T03:16:03.848Z,1007.28
2019-01-14T03:17:02.298Z,1007.3
2019-01-14T03:18:02.052Z,1007.27
2019-01-14T03:19:02.018Z,1007.27
2019-01-14T03:20:03.091Z,1007.28
2019-01-14T03:21:02.189Z,1007.3
2019-01-14T03:22:02.289Z,1007.29
2019-01-14T03:23:02.482Z,1007.35
2019-01-14T03:24:02.094Z,1007.39
2019-01-14T03:25:02.134Z,1007.45
2019-01-14T03:26:02.117Z,1007.45
2019-01-14T03:27:02.055Z,1007.48
2019-01-14T03:28:02.108Z,1007.47
2019-01-14T03:29:01.992Z,1007.47
2019-01-14T03:30:02.091Z,1007.51
2019-01-14T03:31:02.822Z,1007.55
2019-01-14T03:32:02.785Z,1007.56
2019-01-14T03:33:02.191Z,1007.54
2019-01-14T03:34:02.571Z,1007.63
2019-01-14T03:35:02.181Z,1007.62
2019-01-14T03:36:02.840Z,1007.64
2019-01-14T03:37:05.880Z,1007.66
2019-01-14T03:38:02.160Z,1007.64
2019-01-14T03:39:02.180Z,1007.6
2019-01-14T03:40:02.321Z,1007.67
2019-01-14T03:41:01.982Z,1007.67
2019-01-14T03:42:02.000Z,1007.67
2019-01-14T03:43:02.348Z,1007.71
2019-01-14T03:44:02.039Z,1007.71
2019-01-14T03:45:02.262Z,1007.75
2019-01-14T03:46:03.833Z,1007.76
2019-01-14T03:47:02.019Z,1007.75
2019-01-14T03:48:02.268Z,1007.77
2019-01-14T03:49:02.178Z,1007.82
2019-01-14T03:50:02.276Z,1007.85
2019-01-14T03:51:02.119Z,1007.89
2019-01-14T03:52:02.610Z,1007.93
2019-01-14T03:53:02.481Z,1007.97
2019-01-14T03:54:02.035Z,1007.96
2019-01-14T03:55:02.299Z,1007.99
2019-01-14T03:56:02.325Z,1008.01
2019-01-14T03:57:02.058Z,1008.04
2019-01-14T03:58:02.210Z,1008.05
2019-01-14T03:59:02.350Z,1008.08
2019-01-14T04:00:02.097Z,1008.11
2019-01-14T04:01:01.995Z,1008.12
2019-01-14T04:02:02.222Z,1008.15
2019-01-14T04:03:02.142Z,1008.17
2019-01-14T04:04:02.002Z,1008.21
2019-01-14T04:05:02.165Z,1008.2
2019-01-14T04:06:01.994Z,1008.2
2019-01-14T04:07:02.028Z,1008.28
2019-01-14T04:08:02.184Z,1008.29
2019-01-14T04:09:01.980Z,1008.35
2019-01-14T04:10:02.219Z,1008.35
2019-01-14T04:11:02.560Z,1008.44
2019-01-14T04:12:02.015Z,1008.41
2019-01-14T04:13:02.028Z,1008.44
2019-01-14T04:14:02.628Z,1008.48
2019-01-14T04:15:02.331Z,1008.49
2019-01-14T04:16:02.086Z,1008.55
2019-01-14T04:17:02.089Z,1008.58
2019-01-14T04:18:01.959Z,1008.6
2019-01-14T04:19:02.074Z,1008.68
2019-01-14T04:20:02.409Z,1008.71
2019-01-14T04:21:01.986Z,1008.76
2019-01-14T04:22:02.188Z,1008.78
2019-01-14T04:23:01.946Z,1008.79
2019-01-14T04:24:01.962Z,1008.79
2019-01-14T04:25:02.019Z,1008.79
2019-01-14T04:26:02.532Z,1008.78
2019-01-14T04:27:02.200Z,1008.75
2019-01-14T04:28:02.113Z,1008.73
2019-01-14T04:29:02.322Z,1008.69
2019-01-14T04:30:01.961Z,1008.71
2019-01-14T04:31:02.045Z,1008.7
2019-01-14T04:32:02.255Z,1008.71
2019-01-14T04:33:02.209Z,1008.73
2019-01-14T04:34:02.260Z,1008.75
2019-01-14T04:35:02.146Z,1008.74
2019-01-14T04:36:03.702Z,1008.73
2019-01-14T04:37:02.311Z,1008.76
2019-01-14T04:38:02.312Z,1008.79
2019-01-14T04:39:02.240Z,1008.8
2019-01-14T04:40:02.208Z,1008.77
2019-01-14T04:41:02.049Z,1008.78
2019-01-14T04:42:02.146Z,1008.79
2019-01-14T04:43:02.111Z,1008.83
2019-01-14T04:44:01.943Z,1008.87
2019-01-14T04:45:02.237Z,1008.88
2019-01-14T04:46:02.058Z,1008.88
2019-01-14T04:47:02.054Z,1008.92
2019-01-14T04:48:02.372Z,1008.95
2019-01-14T04:49:02.132Z,1008.95
2019-01-14T04:50:02.163Z,1008.93
2019-01-14T04:51:02.773Z,1008.95
2019-01-14T04:52:01.950Z,1008.94
2019-01-14T04:53:02.181Z,1008.95
2019-01-14T04:54:02.093Z,1009
2019-01-14T04:55:01.919Z,1009
2019-01-14T04:56:02.407Z,1009.01
2019-01-14T04:57:02.131Z,1008.93
2019-01-14T04:58:02.233Z,1008.9
2019-01-14T04:59:01.948Z,1008.94
2019-01-14T05:00:02.247Z,1008.93
2019-01-14T05:01:01.972Z,1008.95
2019-01-14T05:02:01.899Z,1008.99
2019-01-14T05:03:02.028Z,1008.98
2019-01-14T05:04:02.272Z,1008.94
2019-01-14T05:05:02.289Z,1008.97
2019-01-14T05:06:02.012Z,1009
2019-01-14T05:07:01.986Z,1008.98
2019-01-14T05:08:02.116Z,1009
2019-01-14T05:09:01.886Z,1009.04
2019-01-14T05:10:02.337Z,1009.09
2019-01-14T05:11:01.864Z,1009.1
2019-01-14T05:12:01.847Z,1009.04
2019-01-14T05:13:02.317Z,1009.06
2019-01-14T05:14:02.127Z,1009.1
2019-01-14T05:15:02.260Z,1009.11
2019-01-14T05:16:01.970Z,1009.19
2019-01-14T05:17:02.252Z,1009.18
2019-01-14T05:18:01.862Z,1009.25
2019-01-14T05:19:02.158Z,1009.2
2019-01-14T05:20:03.718Z,1009.24
2019-01-14T05:21:02.496Z,1009.26
2019-01-14T05:22:01.968Z,1009.29
2019-01-14T05:23:01.899Z,1009.32
2019-01-14T05:24:01.907Z,1009.3
2019-01-14T05:25:01.980Z,1009.29
2019-01-14T05:26:01.957Z,1009.3
2019-01-14T05:27:02.048Z,1009.25
2019-01-14T05:28:02.013Z,1009.3
2019-01-14T05:29:02.260Z,1009.3
2019-01-14T05:30:02.132Z,1009.31
2019-01-14T05:31:02.148Z,1009.33
2019-01-14T05:32:01.964Z,1009.34
2019-01-14T05:33:02.038Z,1009.35
2019-01-14T05:34:01.855Z,1009.35
2019-01-14T05:35:02.228Z,1009.39
2019-01-14T05:36:02.241Z,1009.31
2019-01-14T05:37:02.185Z,1009.35
2019-01-14T05:38:02.297Z,1009.34
2019-01-14T05:39:02.524Z,1009.37
2019-01-14T05:40:02.090Z,1009.38
2019-01-14T05:41:02.724Z,1009.39
2019-01-14T05:42:01.999Z,1009.4
2019-01-14T05:43:02.147Z,1009.4
2019-01-14T05:44:01.911Z,1009.46
2019-01-14T05:45:01.823Z,1009.4
2019-01-14T05:46:01.912Z,1009.41
2019-01-14T05:47:01.891Z,1009.45
2019-01-14T05:48:02.066Z,1009.46
2019-01-14T05:49:02.121Z,1009.41
2019-01-14T05:50:02.202Z,1009.37
2019-01-14T05:51:01.962Z,1009.37
2019-01-14T05:52:02.193Z,1009.35
2019-01-14T05:53:02.211Z,1009.32
2019-01-14T05:54:02.174Z,1009.34
2019-01-14T05:55:03.047Z,1009.37
2019-01-14T05:56:01.849Z,1009.32
2019-01-14T05:57:02.228Z,1009.26
2019-01-14T05:58:02.007Z,1009.3
2019-01-14T05:59:02.161Z,1009.32
2019-01-14T06:00:02.142Z,1009.35
2019-01-14T06:01:02.017Z,1009.34
2019-01-14T06:02:01.827Z,1009.38
2019-01-14T06:03:01.903Z,1009.35
2019-01-14T06:04:02.083Z,1009.37
2019-01-14T06:05:03.117Z,1009.35
2019-01-14T06:06:01.804Z,1009.38
2019-01-14T06:07:02.114Z,1009.35
2019-01-14T06:08:02.130Z,1009.39
2019-01-14T06:09:02.120Z,1009.43
2019-01-14T06:10:01.939Z,1009.43
2019-01-14T06:11:02.318Z,1009.47
2019-01-14T06:12:02.045Z,1009.46
2019-01-14T06:13:01.768Z,1009.48
2019-01-14T06:14:01.773Z,1009.44
2019-01-14T06:15:01.846Z,1009.45
2019-01-14T06:16:02.269Z,1009.41
2019-01-14T06:17:01.743Z,1009.42
2019-01-14T06:18:02.073Z,1009.46
2019-01-14T06:19:02.087Z,1009.47
2019-01-14T06:20:01.909Z,1009.5
2019-01-14T06:21:01.924Z,1009.51
2019-01-14T06:22:02.196Z,1009.49
2019-01-14T06:23:01.813Z,1009.52
2019-01-14T06:24:02.222Z,1009.5
2019-01-14T06:25:01.722Z,1009.55
2019-01-14T06:26:02.231Z,1009.53
2019-01-14T06:27:01.765Z,1009.55
2019-01-14T06:28:01.833Z,1009.57
2019-01-14T06:29:01.972Z,1009.56
2019-01-14T06:30:01.752Z,1009.58
2019-01-14T06:31:01.783Z,1009.63
2019-01-14T06:32:01.754Z,1009.62
2019-01-14T06:33:03.185Z,1009.68
2019-01-14T06:34:02.630Z,1009.66
2019-01-14T06:35:02.075Z,1009.72
2019-01-14T06:36:02.088Z,1009.77
2019-01-14T06:37:02.006Z,1009.8
2019-01-14T06:38:01.701Z,1009.83
2019-01-14T06:39:02.428Z,1009.81
2019-01-14T06:40:02.842Z,1009.78
2019-01-14T06:41:01.779Z,1009.82
2019-01-14T06:42:02.141Z,1009.82
2019-01-14T06:43:02.044Z,1009.84
2019-01-14T06:44:02.069Z,1009.91
2019-01-14T06:45:01.949Z,1009.93
2019-01-14T06:46:01.964Z,1009.93
2019-01-14T06:47:01.960Z,1009.96
2019-01-14T06:48:01.978Z,1009.96
2019-01-14T06:49:01.804Z,1010
2019-01-14T06:50:02.028Z,1010
2019-01-14T06:51:02.173Z,1010
2019-01-14T06:52:03.133Z,1009.97
2019-01-14T06:53:01.944Z,1010.01
2019-01-14T06:54:01.982Z,1010.06
2019-01-14T06:55:02.612Z,1010.09
2019-01-14T06:56:01.764Z,1010.12
2019-01-14T06:57:02.021Z,1010.13
2019-01-14T06:59:01.924Z,1010.16
2019-01-14T07:00:02.042Z,1010.22
2019-01-14T07:01:01.709Z,1010.27
2019-01-14T07:02:01.700Z,1010.28
2019-01-14T07:03:02.192Z,1010.35
2019-01-14T07:04:01.781Z,1010.34
2019-01-14T07:05:01.975Z,1010.34
2019-01-14T07:06:02.103Z,1010.37
2019-01-14T07:07:02.203Z,1010.34
2019-01-14T07:08:02.101Z,1010.32
2019-01-14T07:09:01.777Z,1010.38
2019-01-14T07:10:01.803Z,1010.32
2019-01-14T07:11:02.219Z,1010.35
2019-01-14T07:12:01.709Z,1010.39
2019-01-14T07:13:01.928Z,1010.41
2019-01-14T07:14:02.050Z,1010.45
2019-01-14T07:15:02.262Z,1010.41
2019-01-14T07:16:01.768Z,1010.42
2019-01-14T07:17:01.775Z,1010.47
2019-01-14T07:18:01.782Z,1010.49
2019-01-14T07:19:02.015Z,1010.5
2019-01-14T07:20:01.765Z,1010.51
2019-01-14T07:21:01.750Z,1010.52
2019-01-14T07:22:02.006Z,1010.56
2019-01-14T07:23:01.697Z,1010.59
2019-01-14T07:24:01.670Z,1010.6
2019-01-14T07:25:01.931Z,1010.63
2019-01-14T07:26:02.037Z,1010.66
2019-01-14T07:27:01.674Z,1010.69
2019-01-14T07:28:01.749Z,1010.72
2019-01-14T07:29:02.038Z,1010.75
2019-01-14T07:30:02.247Z,1010.8
2019-01-14T07:31:01.650Z,1010.74
2019-01-14T07:32:01.682Z,1010.83
2019-01-14T07:33:01.732Z,1010.8
2019-01-14T07:34:01.773Z,1010.85
2019-01-14T07:35:02.505Z,1010.92
2019-01-14T07:36:01.710Z,1010.93
2019-01-14T07:37:01.704Z,1010.91
2019-01-14T07:38:07.225Z,1010.94
2019-01-14T07:39:02.117Z,1010.92
2019-01-14T07:40:01.757Z,1010.93
2019-01-14T07:41:02.333Z,1010.9
2019-01-14T07:42:01.612Z,1010.92
2019-01-14T07:43:02.078Z,1010.96
2019-01-14T07:44:01.620Z,1010.97
2019-01-14T07:45:01.644Z,1010.97
2019-01-14T07:46:01.857Z,1010.99
2019-01-14T07:47:01.659Z,1011
2019-01-14T07:48:01.655Z,1010.98
2019-01-14T07:49:01.606Z,1010.97
2019-01-14T07:50:01.671Z,1010.94
2019-01-14T07:51:01.764Z,1011
2019-01-14T07:52:01.844Z,1011.04
2019-01-14T07:53:02.098Z,1011.08
2019-01-14T07:54:01.746Z,1011.1
2019-01-14T07:55:01.904Z,1011.14
2019-01-14T07:56:01.941Z,1011.13
2019-01-14T07:57:01.966Z,1011.12
2019-01-14T07:58:02.041Z,1011.16
2019-01-14T07:59:02.049Z,1011.15
2019-01-14T08:00:01.975Z,1011.2
2019-01-14T08:01:01.662Z,1011.22
2019-01-14T08:02:02.096Z,1011.23
2019-01-14T08:03:01.781Z,1011.24
2019-01-14T08:04:02.070Z,1011.27
2019-01-14T08:05:01.754Z,1011.28
2019-01-14T08:06:01.654Z,1011.29
2019-01-14T08:07:02.195Z,1011.28
2019-01-14T08:08:01.833Z,1011.36
2019-01-14T08:09:01.903Z,1011.32
2019-01-14T08:10:01.798Z,1011.34
2019-01-14T08:11:02.030Z,1011.45
2019-01-14T08:12:02.224Z,1011.41
2019-01-14T08:13:01.650Z,1011.42
2019-01-14T08:14:01.620Z,1011.45
2019-01-14T08:15:01.760Z,1011.46
2019-01-14T08:16:01.380Z,1011.47
2019-01-14T08:17:01.860Z,1011.5
2019-01-14T08:18:02.547Z,1011.51
2019-01-14T08:19:01.709Z,1011.59
2019-01-14T08:20:01.617Z,1011.61
2019-01-14T08:21:01.724Z,1011.61
2019-01-14T08:22:01.659Z,1011.56
2019-01-14T08:23:01.631Z,1011.61
2019-01-14T08:24:01.573Z,1011.54
2019-01-14T08:25:02.435Z,1011.56
2019-01-14T08:26:01.786Z,1011.57
2019-01-14T08:27:02.025Z,1011.56
2019-01-14T08:28:02.032Z,1011.52
2019-01-14T08:29:01.582Z,1011.47
2019-01-14T08:30:01.651Z,1011.51
2019-01-14T08:31:03.451Z,1011.53
2019-01-14T08:32:02.134Z,1011.54
2019-01-14T08:33:01.873Z,1011.54
2019-01-14T08:34:01.971Z,1011.57
2019-01-14T08:35:01.923Z,1011.58
2019-01-14T08:36:01.628Z,1011.62
2019-01-14T08:37:01.639Z,1011.65
2019-01-14T08:38:01.616Z,1011.62
2019-01-14T08:39:01.804Z,1011.61
2019-01-14T08:40:02.122Z,1011.63
2019-01-14T08:41:01.588Z,1011.58
2019-01-14T08:42:01.724Z,1011.61
2019-01-14T08:43:01.787Z,1011.62
2019-01-14T08:44:01.603Z,1011.68
2019-01-14T08:45:01.971Z,1011.66
2019-01-14T08:46:01.650Z,1011.68
2019-01-14T08:47:01.656Z,1011.72
2019-01-14T08:48:01.559Z,1011.73
2019-01-14T08:49:01.750Z,1011.73
2019-01-14T08:50:01.792Z,1011.75
2019-01-14T08:51:01.897Z,1011.75
2019-01-14T08:52:01.659Z,1011.76
2019-01-14T08:53:02.232Z,1011.82
2019-01-14T08:54:02.020Z,1011.82
2019-01-14T08:55:01.825Z,1011.83
2019-01-14T08:56:01.580Z,1011.83
2019-01-14T08:57:01.682Z,1011.84
2019-01-14T08:58:01.786Z,1011.87
2019-01-14T08:59:01.691Z,1011.88
2019-01-14T09:00:01.846Z,1011.88
2019-01-14T09:01:02.170Z,1011.95
2019-01-14T09:02:01.618Z,1011.93
2019-01-14T09:03:01.777Z,1011.91
2019-01-14T09:04:02.020Z,1011.94
2019-01-14T09:05:02.456Z,1011.94
2019-01-14T09:06:03.429Z,1011.96
2019-01-14T09:07:01.827Z,1011.95
2019-01-14T09:08:01.659Z,1011.96
2019-01-14T09:09:01.622Z,1011.95
2019-01-14T09:10:01.960Z,1011.96
2019-01-14T09:11:02.082Z,1011.92
2019-01-14T09:12:01.740Z,1011.96
2019-01-14T09:13:01.523Z,1011.99
2019-01-14T09:15:01.502Z,1012.01
2019-01-14T09:16:01.670Z,1012
2019-01-14T09:17:03.827Z,1012.02
2019-01-14T09:18:03.220Z,1011.99
2019-01-14T09:19:01.703Z,1012.01
2019-01-14T09:20:01.449Z,1012.01
2019-01-14T09:21:02.222Z,1011.97
2019-01-14T09:22:01.486Z,1011.94
2019-01-14T09:23:01.854Z,1011.93
2019-01-14T09:24:02.037Z,1011.93
2019-01-14T09:25:18.058Z,1011.96
2019-01-14T09:26:01.570Z,1011.95
2019-01-14T09:27:01.535Z,1011.95
2019-01-14T09:28:01.786Z,1011.99
2019-01-14T09:29:01.488Z,1011.99
2019-01-14T09:30:01.224Z,1011.96
2019-01-14T09:31:18.161Z,1012.03
2019-01-14T09:32:01.961Z,1011.99
2019-01-14T09:33:01.561Z,1012.04
2019-01-14T09:34:01.573Z,1011.99
2019-01-14T09:35:01.494Z,1012.05
2019-01-14T09:36:01.498Z,1012.05
2019-01-14T09:37:01.615Z,1012.07
2019-01-14T09:38:01.693Z,1012.04
2019-01-14T09:39:01.544Z,1012.07
2019-01-14T09:40:01.530Z,1012.06
2019-01-14T09:41:01.475Z,1012.09
2019-01-14T09:42:03.293Z,1012.12
2019-01-14T09:43:01.884Z,1012.1
2019-01-14T09:44:02.391Z,1012.09
2019-01-14T09:45:01.604Z,1012.11
2019-01-14T09:46:01.719Z,1012.1
2019-01-14T09:47:01.455Z,1012.11
2019-01-14T09:48:01.798Z,1012.1
2019-01-14T09:49:01.018Z,1012.14
2019-01-14T09:50:01.783Z,1012.11
2019-01-14T09:51:03.329Z,1012.11
2019-01-14T09:52:01.451Z,1012.11
2019-01-14T09:53:01.513Z,1012.16
2019-01-14T09:54:01.572Z,1012.11
2019-01-14T09:55:06.010Z,1012.15
2019-01-14T09:56:01.719Z,1012.14
2019-01-14T09:57:01.861Z,1012.16
2019-01-14T09:58:01.525Z,1012.17
2019-01-14T09:59:01.841Z,1012.12
2019-01-14T10:00:01.613Z,1012.12
2019-01-14T10:01:07.726Z,1012.06
2019-01-14T10:02:05.002Z,1012.07
2019-01-14T10:03:01.981Z,1011.99
2019-01-14T10:04:01.518Z,1012.01
2019-01-14T10:05:01.649Z,1012.03
2019-01-14T10:06:01.523Z,1012.07
2019-01-14T10:07:01.475Z,1012.1
2019-01-14T10:08:01.471Z,1012.13
2019-01-14T10:09:01.008Z,1012.13
2019-01-14T10:10:01.511Z,1012.11
2019-01-14T10:11:01.567Z,1012.13
2019-01-14T10:12:01.891Z,1012.14
2019-01-14T10:13:01.499Z,1012.14
2019-01-14T10:14:01.701Z,1012.14
2019-01-14T10:15:01.717Z,1012.19
2019-01-14T10:16:02.554Z,1012.16
2019-01-14T10:17:02.146Z,1012.17
2019-01-14T10:18:01.834Z,1012.17
2019-01-14T10:19:03.226Z,1012.15
2019-01-14T10:20:02.051Z,1012.12
2019-01-14T10:21:01.672Z,1012.1
2019-01-14T10:22:01.858Z,1012.14
2019-01-14T10:23:01.482Z,1012.11
2019-01-14T10:24:01.526Z,1012.11
2019-01-14T10:25:01.546Z,1012.18
2019-01-14T10:26:01.408Z,1012.11
2019-01-14T10:27:01.381Z,1012.09
2019-01-14T10:28:01.622Z,1012.13
2019-01-14T10:29:01.527Z,1012.11
2019-01-14T10:30:01.449Z,1012.11
2019-01-14T10:31:01.753Z,1012.12
2019-01-14T10:32:01.846Z,1012.04
2019-01-14T10:33:01.400Z,1012.1
2019-01-14T10:34:03.101Z,1012.11
2019-01-14T10:35:01.656Z,1012.09
2019-01-14T10:36:01.540Z,1012.09
2019-01-14T10:37:01.498Z,1012.07
2019-01-14T10:38:02.105Z,1012.15
2019-01-14T10:39:01.787Z,1012.07
2019-01-14T10:40:01.381Z,1012.21
2019-01-14T10:41:01.436Z,1012.07
2019-01-14T10:42:05.267Z,1012.16
2019-01-14T10:43:02.498Z,1012.09
2019-01-14T10:44:01.397Z,1012.12
2019-01-14T10:45:01.452Z,1012.12
2019-01-14T10:46:01.538Z,1012.11
2019-01-14T10:47:01.543Z,1012.14
2019-01-14T10:48:01.513Z,1012.05
2019-01-14T10:49:01.174Z,1012.13
2019-01-14T10:50:01.442Z,1012.1
2019-01-14T10:51:01.900Z,1012.16
2019-01-14T10:52:01.779Z,1012.18
2019-01-14T10:53:01.408Z,1012.11
2019-01-14T10:54:01.706Z,1012.07
2019-01-14T10:55:01.460Z,1012.11
2019-01-14T10:56:01.596Z,1012.2
2019-01-14T10:57:01.475Z,1012.18
2019-01-14T10:58:01.712Z,1012.16
2019-01-14T10:59:01.932Z,1012.16
2019-01-14T11:00:02.575Z,1012.14
2019-01-14T11:01:01.406Z,1012.12
2019-01-14T11:02:01.476Z,1012.12
2019-01-14T11:03:01.815Z,1012.07
2019-01-14T11:04:01.412Z,1012.15
2019-01-14T11:05:01.499Z,1012.11
2019-01-14T11:06:01.904Z,1012.12
2019-01-14T11:07:03.301Z,1012.15
2019-01-14T11:08:01.333Z,1012.1
2019-01-14T11:09:06.262Z,1012.14
2019-01-14T11:10:01.495Z,1012.15
2019-01-14T11:11:01.416Z,1012.18
2019-01-14T11:12:01.338Z,1012.1
2019-01-14T11:13:01.368Z,1012.08
2019-01-14T11:14:01.274Z,1012.18
2019-01-14T11:15:03.422Z,1012.12
2019-01-14T11:16:01.329Z,1012.08
2019-01-14T11:17:02.425Z,1012.06
2019-01-14T11:18:01.415Z,1012.07
2019-01-14T11:19:01.455Z,1012.13
2019-01-14T11:20:01.325Z,1012.11
2019-01-14T11:21:01.359Z,1012.05
2019-01-14T11:22:01.295Z,1012.05
2019-01-14T11:23:01.337Z,1012.12
2019-01-14T11:24:01.905Z,1012.15
2019-01-14T11:25:02.659Z,1012.14
2019-01-14T11:26:01.324Z,1012.24
2019-01-14T11:27:01.299Z,1012.21
2019-01-14T11:28:01.370Z,1012.22
2019-01-14T11:29:01.319Z,1012.24
2019-01-14T11:30:01.315Z,1012.24
2019-01-14T11:31:02.389Z,1012.18
2019-01-14T11:32:01.321Z,1012.19
2019-01-14T11:34:01.597Z,1012.32
2019-01-14T11:35:01.374Z,1012.2
2019-01-14T11:36:01.245Z,1012.24
2019-01-14T11:37:01.299Z,1012.24
2019-01-14T11:38:01.255Z,1012.23
2019-01-14T11:39:05.439Z,1012.25
2019-01-14T11:40:01.839Z,1012.24
2019-01-14T11:41:01.366Z,1012.27
2019-01-14T11:42:01.625Z,1012.37
2019-01-14T11:43:01.727Z,1012.35
2019-01-14T11:44:01.558Z,1012.38
2019-01-14T11:45:01.498Z,1012.34
2019-01-14T11:46:01.386Z,1012.34
2019-01-14T11:47:02.072Z,1012.37
2019-01-14T11:48:01.579Z,1012.31
2019-01-14T11:49:01.295Z,1012.36
2019-01-14T11:50:01.755Z,1012.41
2019-01-14T11:51:01.489Z,1012.36
2019-01-14T11:52:01.796Z,1012.33
2019-01-14T11:53:01.607Z,1012.42
2019-01-14T11:54:01.295Z,1012.52
2019-01-14T11:55:01.302Z,1012.97
2019-01-14T11:56:01.341Z,1013.03
2019-01-14T11:57:01.522Z,1013.12
2019-01-14T11:58:01.734Z,1013.18
2019-01-14T11:59:01.309Z,1013.16
2019-01-14T12:00:02.053Z,1013.29
2019-01-14T12:01:02.192Z,1013.36
2019-01-14T12:02:03.087Z,1013.41
2019-01-14T12:03:01.360Z,1013.49
2019-01-14T12:04:01.278Z,1013.47
2019-01-14T12:05:01.332Z,1013.59
2019-01-14T12:06:01.588Z,1013.57
2019-01-14T12:07:01.733Z,1013.58
2019-01-14T12:08:01.375Z,1013.57
2019-01-14T12:09:01.928Z,1013.62
2019-01-14T12:10:01.405Z,1013.65
2019-01-14T12:11:01.033Z,1013.71